createdAt,value
2017-09-25T00:02:09.309Z,22.10
2017-09-25T00:04:37.941Z,19.20
2017-09-25T00:07:06.568Z,18.43
2017-09-25T00:09:37.412Z,19.43
2017-09-25T00:12:06.289Z,19.07
2017-09-25T00:14:35.977Z,20.50
2017-09-25T00:17:04.776Z,19.73
2017-09-25T00:19:35.932Z,21.17
2017-09-25T00:22:06.964Z,21.10
2017-09-25T00:24:38.018Z,19.57
2017-09-25T00:27:06.763Z,17.70
2017-09-25T00:29:35.280Z,19.73
2017-09-25T00:32:03.735Z,20.00
2017-09-25T00:34:32.126Z,19.47
2017-09-25T00:37:05.418Z,19.27
2017-09-25T00:39:41.225Z,19.07
2017-09-25T00:42:09.735Z,20.83
2017-09-25T00:44:38.032Z,20.03
2017-09-25T00:47:06.386Z,19.00
2017-09-25T00:49:34.716Z,21.20
2017-09-25T00:52:03.151Z,19.60
2017-09-25T00:54:31.464Z,23.87
2017-09-25T00:56:59.880Z,21.43
2017-09-25T00:59:29.775Z,20.73
2017-09-25T01:02:08.329Z,20.50
2017-09-25T01:04:45.733Z,21.90
2017-09-25T01:07:14.107Z,22.43
2017-09-25T01:09:42.419Z,25.57
2017-09-25T01:12:10.967Z,22.60
2017-09-25T01:14:39.287Z,22.33
2017-09-25T01:17:07.828Z,21.93
2017-09-25T01:19:36.491Z,21.43
2017-09-25T01:22:04.915Z,25.93
2017-09-25T01:24:33.416Z,25.63
2017-09-25T01:27:01.805Z,26.57
2017-09-25T01:29:30.383Z,31.80
2017-09-25T01:31:58.716Z,29.43
2017-09-25T01:34:27.016Z,27.07
2017-09-25T01:36:55.368Z,30.57
2017-09-25T01:39:23.705Z,28.30
2017-09-25T01:41:52.224Z,26.13
2017-09-25T01:44:20.652Z,26.50
2017-09-25T01:46:49.193Z,22.27
2017-09-25T01:49:17.603Z,24.17
2017-09-25T01:51:45.924Z,25.47
2017-09-25T01:54:14.325Z,26.80
2017-09-25T01:56:42.657Z,24.30
2017-09-25T01:59:10.976Z,25.23
2017-09-25T02:01:39.315Z,27.70
2017-09-25T02:04:07.623Z,23.90
2017-09-25T02:06:35.978Z,21.80
2017-09-25T02:09:04.548Z,23.83
2017-09-25T02:11:32.896Z,24.77
2017-09-25T02:14:01.420Z,25.30
2017-09-25T02:16:29.912Z,24.90
2017-09-25T02:18:58.418Z,25.67
2017-09-25T02:21:26.867Z,23.00
2017-09-25T02:23:55.158Z,24.20
2017-09-25T02:26:23.623Z,21.93
2017-09-25T02:28:52.004Z,22.57
2017-09-25T02:31:20.414Z,25.33
2017-09-25T02:33:48.728Z,21.97
2017-09-25T02:36:17.135Z,24.77
2017-09-25T02:38:45.588Z,21.70
2017-09-25T02:41:14.131Z,22.10
2017-09-25T02:43:42.493Z,23.90
2017-09-25T02:46:10.871Z,22.93
2017-09-25T02:48:39.251Z,22.90
2017-09-25T02:51:07.609Z,19.70
2017-09-25T02:53:35.931Z,22.13
2017-09-25T02:56:04.226Z,18.67
2017-09-25T02:58:32.542Z,23.47
2017-09-25T03:01:00.967Z,21.27
2017-09-25T03:03:29.307Z,21.97
2017-09-25T03:05:57.622Z,21.07
2017-09-25T03:08:26.059Z,21.67
2017-09-25T03:10:54.758Z,23.77
2017-09-25T03:13:23.080Z,26.37
2017-09-25T03:15:51.407Z,22.60
2017-09-25T03:18:19.777Z,21.97
2017-09-25T03:20:48.120Z,22.77
2017-09-25T03:23:16.399Z,20.30
2017-09-25T03:25:44.855Z,24.37
2017-09-25T03:28:13.132Z,23.57
2017-09-25T03:30:41.484Z,20.37
2017-09-25T03:33:09.966Z,21.80
2017-09-25T03:35:38.576Z,22.43
2017-09-25T03:38:06.872Z,19.00
2017-09-25T03:40:35.183Z,20.70
2017-09-25T03:43:03.754Z,19.30
2017-09-25T03:45:32.102Z,20.50
2017-09-25T03:48:00.468Z,21.87
2017-09-25T03:50:28.831Z,20.80
2017-09-25T03:52:57.130Z,20.80
2017-09-25T03:55:25.436Z,19.33
2017-09-25T03:57:53.820Z,20.03
2017-09-25T04:03:19.938Z,19.50
2017-09-25T04:05:48.830Z,19.70
2017-09-25T04:08:17.716Z,22.70
2017-09-25T04:10:46.409Z,20.93
2017-09-25T04:13:15.581Z,21.97
2017-09-25T04:15:44.436Z,20.30
2017-09-25T04:18:13.515Z,20.83
2017-09-25T04:20:42.611Z,25.73
2017-09-25T04:23:11.483Z,20.77
2017-09-25T04:25:40.410Z,21.23
2017-09-25T04:28:09.231Z,24.30
2017-09-25T04:30:38.195Z,23.70
2017-09-25T04:34:05.755Z,23.53
2017-09-25T04:36:34.519Z,25.00
2017-09-25T04:39:03.202Z,25.37
2017-09-25T04:41:31.905Z,22.43
2017-09-25T04:44:00.939Z,26.00
2017-09-25T04:46:29.681Z,27.07
2017-09-25T04:48:58.556Z,24.73
2017-09-25T04:51:27.435Z,31.10
2017-09-25T04:53:56.111Z,26.77
2017-09-25T04:56:24.619Z,27.83
2017-09-25T04:58:53.255Z,30.30
2017-09-25T05:01:22.262Z,32.30
2017-09-25T05:03:50.770Z,27.93
2017-09-25T05:06:19.462Z,24.47
2017-09-25T05:08:48.632Z,28.13
2017-09-25T05:11:17.117Z,29.87
2017-09-25T05:13:45.970Z,28.07
2017-09-25T05:16:14.542Z,28.03
2017-09-25T05:18:43.347Z,24.63
2017-09-25T05:21:11.930Z,28.30
2017-09-25T05:23:40.518Z,27.17
2017-09-25T05:26:09.451Z,30.13
2017-09-25T05:28:39.632Z,23.77
2017-09-25T05:31:08.468Z,23.53
2017-09-25T05:33:37.278Z,21.67
2017-09-25T05:36:05.915Z,21.03
2017-09-25T05:38:34.703Z,22.60
2017-09-25T05:41:03.216Z,20.80
2017-09-25T05:43:32.123Z,24.67
2017-09-25T05:46:00.974Z,21.43
2017-09-25T05:48:29.712Z,20.80
2017-09-25T05:50:58.635Z,22.00
2017-09-25T05:53:27.670Z,23.37
2017-09-25T05:55:56.547Z,25.50
2017-09-25T05:58:25.208Z,29.07
2017-09-25T06:00:53.987Z,25.57
2017-09-25T06:03:22.558Z,20.33
2017-09-25T06:05:51.139Z,26.63
2017-09-25T06:08:19.754Z,25.73
2017-09-25T06:10:48.622Z,24.67
2017-09-25T06:13:17.135Z,29.43
2017-09-25T06:15:47.078Z,25.20
2017-09-25T06:18:15.841Z,29.03
2017-09-25T06:20:44.560Z,24.67
2017-09-25T06:23:16.788Z,24.47
2017-09-25T06:25:45.761Z,23.13
2017-09-25T06:28:14.515Z,23.53
2017-09-25T06:30:43.919Z,23.43
2017-09-25T06:33:12.946Z,26.07
2017-09-25T06:35:41.522Z,25.70
2017-09-25T06:38:10.543Z,29.80
2017-09-25T06:40:41.118Z,28.90
2017-09-25T06:43:10.875Z,32.20
2017-09-25T06:45:39.550Z,24.00
2017-09-25T06:48:08.219Z,31.70
2017-09-25T06:50:36.861Z,27.93
2017-09-25T06:53:07.420Z,22.40
2017-09-25T06:55:37.654Z,27.87
2017-09-25T06:58:07.478Z,30.27
2017-09-25T07:00:36.393Z,30.67
2017-09-25T07:03:04.911Z,26.10
2017-09-25T07:05:33.446Z,24.80
2017-09-25T07:08:01.967Z,34.67
2017-09-25T07:10:32.938Z,29.87
2017-09-25T07:13:02.443Z,24.13
2017-09-25T07:15:31.621Z,26.70
2017-09-25T07:18:02.362Z,30.17
2017-09-25T07:20:33.487Z,26.57
2017-09-25T07:23:02.860Z,28.70
2017-09-25T07:25:32.179Z,25.87
2017-09-25T07:28:01.107Z,32.77
2017-09-25T07:30:29.939Z,34.30
2017-09-25T07:32:58.783Z,24.50
2017-09-25T07:35:27.735Z,24.10
2017-09-25T07:37:57.002Z,33.63
2017-09-25T07:40:25.649Z,30.90
2017-09-25T07:42:54.271Z,29.03
2017-09-25T07:45:22.968Z,27.30
2017-09-25T07:47:51.579Z,30.37
2017-09-25T07:50:20.207Z,33.33
2017-09-25T07:52:48.826Z,32.73
2017-09-25T07:55:18.336Z,34.03
2017-09-25T07:57:46.916Z,37.70
2017-09-25T08:00:15.543Z,31.37
2017-09-25T08:02:44.271Z,34.83
2017-09-25T08:05:14.851Z,32.87
2017-09-25T08:07:48.751Z,37.53
2017-09-25T08:10:17.464Z,37.43
2017-09-25T08:12:45.985Z,37.50
2017-09-25T08:15:17.608Z,34.10
2017-09-25T08:17:46.339Z,34.70
2017-09-25T08:20:15.002Z,34.70
2017-09-25T08:22:43.502Z,31.00
2017-09-25T08:25:12.030Z,39.63
2017-09-25T08:27:40.598Z,32.67
2017-09-25T08:30:09.370Z,26.50
2017-09-25T08:32:37.955Z,32.63
2017-09-25T08:35:06.847Z,36.27
2017-09-25T08:37:35.595Z,36.50
2017-09-25T08:40:04.486Z,32.80
2017-09-25T08:42:33.329Z,36.60
2017-09-25T08:45:02.070Z,31.10
2017-09-25T08:47:31.080Z,39.57
2017-09-25T08:49:59.777Z,35.90
2017-09-25T08:52:28.492Z,34.00
2017-09-25T08:54:57.383Z,33.20
2017-09-25T08:57:26.268Z,26.93
2017-09-25T08:59:54.960Z,33.03
2017-09-25T09:02:23.806Z,26.33
2017-09-25T09:04:52.483Z,38.80
2017-09-25T09:07:21.474Z,38.30
2017-09-25T09:09:50.047Z,36.70
2017-09-25T09:12:18.764Z,33.50
2017-09-25T09:14:47.779Z,34.50
2017-09-25T09:17:16.597Z,31.50
2017-09-25T09:19:45.207Z,30.70
2017-09-25T09:22:14.059Z,37.17
2017-09-25T09:24:42.622Z,34.70
2017-09-25T09:27:11.154Z,25.87
2017-09-25T09:29:39.630Z,32.50
2017-09-25T09:32:08.387Z,29.80
2017-09-25T09:34:36.961Z,27.97
2017-09-25T09:37:06.028Z,22.57
2017-09-25T09:39:34.781Z,28.13
2017-09-25T09:42:03.812Z,32.57
2017-09-25T09:44:32.675Z,26.03
2017-09-25T09:47:01.350Z,21.90
2017-09-25T09:49:30.232Z,23.13
